Time;durP1;ratioP1;P1;durP2;ratioP2;P2;SDS_P1;SDS_P2;PMS_P1;PMS_P2;Temp;Humidity;BMP_temperature;BMP_pressure;BME280_temperature;BME280_humidity;BME280_pressure;Samples;Min_cycle;Max_cycle;Signal;HPM_P1;HPM_P2
2022/09/06 00:04:42;;;;;;;2.33;2.13;;;;;;;;;;12593544;28;20059;-73
2022/09/06 00:10:44;;;;;;;2.10;2.00;;;;;;;;;;12592796;28;20388;-73
2022/09/06 00:16:46;;;;;;;2.78;2.45;;;;;;;;;;12575295;28;20379;-73
2022/09/06 00:22:47;;;;;;;2.28;2.15;;;;;;;;;;12593218;28;20051;-73
2022/09/06 00:28:49;;;;;;;;;;;;;;;;;;12593401;28;20040;-73
2022/09/06 00:34:51;;;;;;;2.33;2.22;;;;;;;;;;12558797;28;19915;-73
2022/09/06 00:40:52;;;;;;;;;;;;;;;;;;12575669;28;20470;-73
2022/09/06 00:46:54;;;;;;;2.45;2.20;;;;;;;;;;12592410;28;20293;-73
2022/09/06 00:52:56;;;;;;;2.38;2.15;;;;;;;;;;12592172;28;20041;-73
2022/09/06 00:58:59;;;;;;;3.17;2.70;;;;;;;;;;12574289;28;20041;-74
2022/09/06 01:05:02;;;;;;;3.05;2.75;;;;;;;;;;12573982;28;20029;-74
2022/09/06 01:11:17;;;;;;;2.58;2.38;;;;;;;;;;12582076;28;20049;-74
2022/09/06 01:17:39;;;;;;;2.70;2.50;;;;;;;;;;12601312;28;20040;-74
2022/09/06 01:24:06;;;;;;;2.50;2.30;;;;;;;;;;12602180;28;20029;-74
2022/09/06 01:30:12;;;;;;;2.97;2.78;;;;;;;;;;12600660;28;20299;-74
2022/09/06 01:36:16;;;;;;;3.15;2.95;;;;;;;;;;12600483;28;20517;-74
2022/09/06 01:42:18;;;;;;;3.63;3.33;;;;;;;;;;12601112;28;20043;-74
2022/09/06 01:48:38;;;;;;;3.45;3.25;;;;;;;;;;12599563;28;20048;-74
2022/09/06 01:54:43;;;;;;;4.43;3.92;;;;;;;;;;12581808;28;20044;-74
2022/09/06 02:00:48;;;;;;;3.58;3.38;;;;;;;;;;12599578;28;20391;-74
2022/09/06 02:07:01;;;;;;;3.53;3.28;;;;;;;;;;12599243;28;20075;-74
2022/09/06 02:13:05;;;;;;;3.45;3.03;;;;;;;;;;12581475;28;20060;-74
2022/09/06 02:19:13;;;;;;;4.07;3.78;;;;;;;;;;12579782;28;20039;-74
2022/09/06 02:25:26;;;;;;;3.10;2.90;;;;;;;;;;12580634;28;20478;-74
2022/09/06 02:31:33;;;;;;;3.80;3.42;;;;;;;;;;12563275;28;20056;-74
2022/09/06 02:37:34;;;;;;;3.33;3.13;;;;;;;;;;12597704;28;20028;-74
2022/09/06 02:43:36;;;;;;;3.60;3.38;;;;;;;;;;12599301;28;20040;-74
2022/09/06 02:49:38;;;;;;;3.42;3.13;;;;;;;;;;12596617;28;20040;-74
2022/09/06 02:55:39;;;;;;;;;;;;;;;;;;12597404;28;20036;-74
2022/09/06 03:01:41;;;;;;;3.35;3.15;;;;;;;;;;12578870;28;20281;-74
2022/09/06 03:07:43;;;;;;;3.50;3.30;;;;;;;;;;12578135;28;20041;-74
2022/09/06 03:13:45;;;;;;;3.05;2.85;;;;;;;;;;12578876;28;20571;-74
2022/09/06 03:19:46;;;;;;;3.83;3.53;;;;;;;;;;12561540;28;20033;-74
2022/09/06 03:25:48;;;;;;;4.07;3.78;;;;;;;;;;12595738;28;20028;-74
2022/09/06 03:31:50;;;;;;;4.43;4.03;;;;;;;;;;12577474;28;20052;-74
2022/09/06 03:37:51;;;;;;;4.43;4.13;;;;;;;;;;12594559;28;20028;-74
2022/09/06 03:43:53;;;;;;;4.15;3.65;;;;;;;;;;12594943;28;20029;-74
2022/09/06 03:49:54;;;;;;;4.43;4.13;;;;;;;;;;12595416;28;20068;-74
2022/09/06 03:55:57;;;;;;;3.85;3.65;;;;;;;;;;12594789;28;20497;-74
2022/09/06 04:01:59;;;;;;;4.70;4.30;;;;;;;;;;12593614;28;20161;-74
2022/09/06 04:08:01;;;;;;;4.20;3.92;;;;;;;;;;12594380;28;20040;-74
2022/09/06 04:14:03;;;;;;;3.88;3.58;;;;;;;;;;12576871;28;20041;-74
2022/09/06 04:20:05;;;;;;;;;;;;;;;;;;12559736;28;20668;-74
2022/09/06 04:26:07;;;;;;;4.53;4.17;;;;;;;;;;12558200;28;19915;-74
2022/09/06 04:32:09;;;;;;;3.83;3.55;;;;;;;;;;12573941;28;20513;-74
2022/09/06 04:38:10;;;;;;;4.45;4.15;;;;;;;;;;12574410;28;20025;-73
2022/09/06 04:44:12;;;;;;;3.80;3.50;;;;;;;;;;12584721;28;20040;-74
2022/09/06 04:50:14;;;;;;;3.35;3.15;;;;;;;;;;12589818;28;20037;-74
2022/09/06 04:56:20;;;;;;;4.18;3.88;;;;;;;;;;12574014;28;20032;-74
2022/09/06 05:02:22;;;;;;;3.95;3.70;;;;;;;;;;12573392;28;20044;-74
2022/09/06 05:08:24;;;;;;;3.58;3.38;;;;;;;;;;12607460;28;20045;-74
2022/09/06 05:14:26;;;;;;;3.50;3.20;;;;;;;;;;12589798;28;20036;-73
2022/09/06 05:20:28;;;;;;;3.85;3.55;;;;;;;;;;12607383;28;20032;-73
2022/09/06 05:26:29;;;;;;;3.45;3.25;;;;;;;;;;12607143;28;20032;-74
2022/09/06 05:32:31;;;;;;;4.22;3.92;;;;;;;;;;12606998;28;20040;-74
2022/09/06 05:38:33;;;;;;;4.35;3.97;;;;;;;;;;12606880;28;20029;-74
2022/09/06 05:44:35;;;;;;;3.85;3.55;;;;;;;;;;12604903;28;20037;-74
2022/09/06 05:50:37;;;;;;;3.47;3.28;;;;;;;;;;12588730;28;20080;-74
2022/09/06 05:56:40;;;;;;;3.25;3.05;;;;;;;;;;12599292;28;20056;-74
2022/09/06 06:02:42;;;;;;;3.67;3.38;;;;;;;;;;12598550;28;20025;-74
2022/09/06 06:08:43;;;;;;;3.58;3.28;;;;;;;;;;12597680;28;20044;-74
2022/09/06 06:14:45;;;;;;;2.85;2.58;;;;;;;;;;12597963;28;20041;-74
2022/09/06 06:20:47;;;;;;;4.50;4.10;;;;;;;;;;12579438;28;20040;-74
2022/09/06 06:26:49;;;;;;;4.35;3.95;;;;;;;;;;12579812;28;20028;-74
2022/09/06 06:32:50;;;;;;;5.90;5.43;;;;;;;;;;12596785;28;20059;-73
2022/09/06 06:38:53;;;;;;;4.38;4.07;;;;;;;;;;12578757;28;20494;-74
2022/09/06 06:44:55;;;;;;;5.28;4.40;;;;;;;;;;12578936;28;20056;-74
2022/09/06 06:50:57;;;;;;;4.40;4.10;;;;;;;;;;12562666;28;20494;-74
2022/09/06 06:56:59;;;;;;;6.13;5.63;;;;;;;;;;12528567;28;20032;-74
2022/09/06 07:03:01;;;;;;;4.45;4.15;;;;;;;;;;12497364;28;20051;-74
2022/09/06 07:09:03;;;;;;;5.35;4.85;;;;;;;;;;12507903;28;20056;-73
2022/09/06 07:15:04;;;;;;;;;;;;;;;;;;12533054;28;20029;-73
2022/09/06 07:21:06;;;;;;;3.10;2.83;;;;;;;;;;12510925;28;19915;-74
2022/09/06 07:27:07;;;;;;;3.83;3.60;;;;;;;;;;12509779;28;20037;-73
2022/09/06 07:33:09;;;;;;;4.05;3.83;;;;;;;;;;12504334;28;20044;-73
2022/09/06 07:39:11;;;;;;;;;;;;;;;;;;12518862;28;20037;-74
2022/09/06 07:45:13;;;;;;;3.93;3.60;;;;;;;;;;12514632;28;19912;-73
2022/09/06 07:51:17;;;;;;;;;;;;;;;;;;12511690;28;20049;-73
2022/09/06 07:57:19;;;;;;;5.85;5.35;;;;;;;;;;12525632;28;20393;-74
2022/09/06 08:03:21;;;;;;;;;;;;;;;;;;12485016;28;20044;-73
2022/09/06 08:09:23;;;;;;;3.08;2.80;;;;;;;;;;12496836;28;19917;-73
2022/09/06 08:15:28;;;;;;;2.90;2.70;;;;;;;;;;12495772;28;20040;-74
2022/09/06 08:21:31;;;;;;;3.85;2.40;;;;;;;;;;12502765;28;20025;-74
2022/09/06 08:27:33;;;;;;;2.40;2.20;;;;;;;;;;12490121;28;20033;-74
2022/09/06 08:33:36;;;;;;;2.15;1.77;;;;;;;;;;12479757;28;20523;-77
2022/09/06 08:39:38;;;;;;;1.83;1.65;;;;;;;;;;12484351;28;20063;-75
2022/09/06 08:45:40;;;;;;;1.70;1.60;;;;;;;;;;12488970;28;20045;-75
2022/09/06 08:51:50;;;;;;;2.25;2.10;;;;;;;;;;12504863;28;20521;-75
2022/09/06 08:57:55;;;;;;;1.23;1.17;;;;;;;;;;12533842;28;20029;-74
2022/09/06 09:03:58;;;;;;;3.30;2.00;;;;;;;;;;12517687;28;20029;-73
2022/09/06 09:10:00;;;;;;;4.28;3.15;;;;;;;;;;12501561;28;20244;-73
2022/09/06 09:16:03;;;;;;;2.00;1.90;;;;;;;;;;12493588;28;20053;-73
2022/09/06 09:22:05;;;;;;;1.80;1.70;;;;;;;;;;12518319;28;20550;-73
2022/09/06 09:28:13;;;;;;;1.90;1.80;;;;;;;;;;12486177;28;20032;-74
2022/09/06 09:34:27;;;;;;;2.20;1.70;;;;;;;;;;12505305;28;20037;-74
2022/09/06 09:40:39;;;;;;;1.30;1.27;;;;;;;;;;12549039;28;20044;-74
2022/09/06 09:46:41;;;;;;;1.65;1.38;;;;;;;;;;12524185;28;20033;-74
2022/09/06 09:52:43;;;;;;;1.50;1.40;;;;;;;;;;12541383;28;20044;-74
2022/09/06 09:58:45;;;;;;;1.52;1.42;;;;;;;;;;12508423;28;20025;-74
2022/09/06 10:05:00;;;;;;;1.33;1.23;;;;;;;;;;12535844;28;20068;-74
2022/09/06 10:11:02;;;;;;;2.97;1.30;;;;;;;;;;12529505;28;20044;-74
2022/09/06 10:17:04;;;;;;;1.15;1.08;;;;;;;;;;12548672;28;20394;-74
2022/09/06 10:23:06;;;;;;;1.13;1.00;;;;;;;;;;12548715;28;20032;-74
2022/09/06 10:29:08;;;;;;;1.92;1.60;;;;;;;;;;12531085;28;20041;-74
2022/09/06 10:35:13;;;;;;;1.88;1.40;;;;;;;;;;12531010;28;20040;-73
2022/09/06 10:41:32;;;;;;;1.67;1.40;;;;;;;;;;12530721;28;20033;-74
2022/09/06 10:47:38;;;;;;;1.75;1.48;;;;;;;;;;12525362;28;20029;-74
2022/09/06 10:53:58;;;;;;;1.88;1.38;;;;;;;;;;12578242;28;20036;-74
2022/09/06 11:00:13;;;;;;;3.25;2.00;;;;;;;;;;12596576;28;20037;-74
2022/09/06 11:06:15;;;;;;;2.33;1.40;;;;;;;;;;12596898;28;20040;-73
2022/09/06 11:12:26;;;;;;;1.10;1.10;;;;;;;;;;12562136;28;20065;-73
2022/09/06 11:18:32;;;;;;;2.33;1.40;;;;;;;;;;12511218;28;20041;-74
2022/09/06 11:24:52;;;;;;;2.13;1.67;;;;;;;;;;12514194;28;20033;-74
2022/09/06 11:30:56;;;;;;;2.20;2.00;;;;;;;;;;12528268;28;20041;-73
2022/09/06 11:36:58;;;;;;;3.97;2.08;;;;;;;;;;12495783;28;20040;-73
2022/09/06 11:42:59;;;;;;;2.45;1.70;;;;;;;;;;12496971;28;20574;-73
2022/09/06 11:49:02;;;;;;;1.75;1.60;;;;;;;;;;12495406;28;20514;-74
2022/09/06 11:55:08;;;;;;;4.00;1.55;;;;;;;;;;12476499;28;20044;-74
2022/09/06 12:01:15;;;;;;;1.00;1.00;;;;;;;;;;12495325;28;20045;-75
2022/09/06 12:07:17;;;;;;;1.48;1.38;;;;;;;;;;12461293;28;20022;-74
2022/09/06 12:13:34;;;;;;;2.33;2.00;;;;;;;;;;12494805;28;20538;-74
2022/09/06 12:19:41;;;;;;;1.40;1.33;;;;;;;;;;12494527;28;20140;-74
2022/09/06 12:25:53;;;;;;;1.48;1.38;;;;;;;;;;12494155;28;20503;-74
2022/09/06 12:31:56;;;;;;;1.85;1.75;;;;;;;;;;12476546;28;20049;-74
2022/09/06 12:38:02;;;;;;;2.30;1.40;;;;;;;;;;12493758;28;20044;-75
2022/09/06 12:44:05;;;;;;;3.13;1.70;;;;;;;;;;12493619;28;20376;-75
2022/09/06 12:50:19;;;;;;;2.35;1.30;;;;;;;;;;12494075;28;20037;-74
2022/09/06 12:56:21;;;;;;;1.90;1.60;;;;;;;;;;12494137;28;20041;-74
2022/09/06 13:02:42;;;;;;;1.33;1.23;;;;;;;;;;12494922;28;20498;-75
2022/09/06 13:08:48;;;;;;;1.70;1.53;;;;;;;;;;12485818;28;20467;-75
2022/09/06 13:14:52;;;;;;;1.23;1.13;;;;;;;;;;12469399;28;20295;-75
2022/09/06 13:21:02;;;;;;;2.85;1.58;;;;;;;;;;12484818;28;20032;-73
2022/09/06 13:27:22;;;;;;;2.10;1.40;;;;;;;;;;12468894;28;20033;-74
2022/09/06 13:33:24;;;;;;;2.47;1.90;;;;;;;;;;12484411;28;20376;-74
2022/09/06 13:39:39;;;;;;;1.90;1.58;;;;;;;;;;12502519;28;20041;-73
2022/09/06 13:45:41;;;;;;;1.40;1.17;;;;;;;;;;12501795;28;20044;-74
2022/09/06 13:51:43;;;;;;;1.33;1.30;;;;;;;;;;12484579;28;20048;-74
2022/09/06 13:57:45;;;;;;;2.17;1.50;;;;;;;;;;12484512;28;20040;-74
2022/09/06 14:03:46;;;;;;;1.67;1.40;;;;;;;;;;12483323;28;20037;-75
2022/09/06 14:09:50;;;;;;;2.05;1.20;;;;;;;;;;12482653;28;20045;-75
2022/09/06 14:15:51;;;;;;;1.33;1.17;;;;;;;;;;12499669;28;20041;-75
2022/09/06 14:21:53;;;;;;;1.20;1.10;;;;;;;;;;12482160;28;20045;-75
2022/09/06 14:27:55;;;;;;;1.38;1.27;;;;;;;;;;12482305;28;20033;-74
2022/09/06 14:33:57;;;;;;;1.23;1.13;;;;;;;;;;12465617;28;20052;-73
2022/09/06 14:39:59;;;;;;;1.75;1.00;;;;;;;;;;12499730;28;20028;-74
2022/09/06 14:46:08;;;;;;;1.98;1.10;;;;;;;;;;12464692;28;20045;-73
2022/09/06 14:52:09;;;;;;;1.00;1.00;;;;;;;;;;12498485;28;20041;-74
2022/09/06 14:58:13;;;;;;;1.30;1.20;;;;;;;;;;12498015;28;20025;-74
2022/09/06 15:04:15;;;;;;;1.10;1.00;;;;;;;;;;12497005;28;20045;-74
2022/09/06 15:10:18;;;;;;;0.95;0.90;;;;;;;;;;12478780;28;20049;-73
2022/09/06 15:16:20;;;;;;;0.70;0.70;;;;;;;;;;12478525;28;20113;-74
2022/09/06 15:22:22;;;;;;;2.72;1.00;;;;;;;;;;12478157;28;20033;-74
2022/09/06 15:28:23;;;;;;;1.77;0.95;;;;;;;;;;12477901;28;20040;-74
2022/09/06 15:34:26;;;;;;;3.13;1.23;;;;;;;;;;12477562;28;20048;-75
2022/09/06 15:40:27;;;;;;;2.92;1.83;;;;;;;;;;12462349;28;20060;-74
2022/09/06 15:46:38;;;;;;;2.58;1.15;;;;;;;;;;12477507;28;20495;-75
2022/09/06 15:52:40;;;;;;;2.53;1.20;;;;;;;;;;12495114;28;20399;-75
2022/09/06 15:58:42;;;;;;;3.55;2.40;;;;;;;;;;12494606;28;20036;-74
2022/09/06 16:04:45;;;;;;;2.15;1.30;;;;;;;;;;12477008;28;20041;-74
2022/09/06 16:10:47;;;;;;;0.80;0.80;;;;;;;;;;12460049;28;20055;-74
2022/09/06 16:16:50;;;;;;;1.20;1.05;;;;;;;;;;12477285;28;20036;-74
2022/09/06 16:22:52;;;;;;;1.38;0.98;;;;;;;;;;12460406;28;20033;-74
2022/09/06 16:28:54;;;;;;;1.02;0.93;;;;;;;;;;12494706;28;20036;-75
2022/09/06 16:34:56;;;;;;;0.82;0.82;;;;;;;;;;12461784;28;20034;-74
2022/09/06 16:40:58;;;;;;;1.10;0.90;;;;;;;;;;12481575;28;20452;-75
2022/09/06 16:47:02;;;;;;;1.30;0.95;;;;;;;;;;12497247;28;20037;-75
2022/09/06 16:53:04;;;;;;;1.65;1.13;;;;;;;;;;12494549;28;20052;-75
2022/09/06 16:59:07;;;;;;;1.77;1.30;;;;;;;;;;12476763;28;20036;-75
2022/09/06 17:05:13;;;;;;;1.85;1.05;;;;;;;;;;12475776;28;20025;-73
2022/09/06 17:11:16;;;;;;;1.45;0.88;;;;;;;;;;12476205;28;20053;-74
2022/09/06 17:17:18;;;;;;;1.80;1.08;;;;;;;;;;12476255;28;20042;-74
2022/09/06 17:23:20;;;;;;;1.95;1.58;;;;;;;;;;12493606;28;20041;-74
2022/09/06 17:29:25;;;;;;;1.95;1.75;;;;;;;;;;12493103;28;20048;-75
2022/09/06 17:35:27;;;;;;;2.20;1.25;;;;;;;;;;12493343;28;20033;-74
2022/09/06 17:41:39;;;;;;;1.85;1.00;;;;;;;;;;12494031;28;20463;-74
2022/09/06 17:47:40;;;;;;;1.67;1.30;;;;;;;;;;12492642;28;20525;-74
2022/09/06 17:53:45;;;;;;;1.80;1.50;;;;;;;;;;12483742;28;20056;-75
2022/09/06 17:59:46;;;;;;;2.70;1.30;;;;;;;;;;12501310;28;20053;-74
2022/09/06 18:05:48;;;;;;;1.75;1.25;;;;;;;;;;12483551;28;20427;-75
2022/09/06 18:11:50;;;;;;;2.80;1.55;;;;;;;;;;12500627;28;20053;-76
2022/09/06 18:17:52;;;;;;;2.50;1.52;;;;;;;;;;12500372;28;20041;-74
2022/09/06 18:23:55;;;;;;;1.75;1.40;;;;;;;;;;12500214;28;20472;-74
2022/09/06 18:29:56;;;;;;;1.90;1.25;;;;;;;;;;12499954;28;20049;-74
2022/09/06 18:35:58;;;;;;;1.73;1.20;;;;;;;;;;12482017;28;20040;-74
2022/09/06 18:42:02;;;;;;;1.23;1.13;;;;;;;;;;12499423;28;20042;-76
2022/09/06 18:48:04;;;;;;;1.67;1.58;;;;;;;;;;12499253;28;20399;-76
2022/09/06 18:54:06;;;;;;;1.58;1.48;;;;;;;;;;12465754;28;20399;-75
2022/09/06 19:00:08;;;;;;;1.20;1.10;;;;;;;;;;12498053;28;20021;-75
2022/09/06 19:06:11;;;;;;;1.10;1.10;;;;;;;;;;12464823;28;20049;-74
2022/09/06 19:12:14;;;;;;;1.23;1.20;;;;;;;;;;12480253;28;20388;-75
2022/09/06 19:18:18;;;;;;;1.58;1.40;;;;;;;;;;12479966;28;20488;-75
2022/09/06 19:24:24;;;;;;;2.38;1.50;;;;;;;;;;12497443;28;20387;-74
2022/09/06 19:30:26;;;;;;;1.50;1.40;;;;;;;;;;12497479;28;20038;-74
2022/09/06 19:36:28;;;;;;;1.73;1.52;;;;;;;;;;12496671;28;20033;-74
2022/09/06 19:42:30;;;;;;;1.20;1.05;;;;;;;;;;12498278;28;20029;-74
2022/09/06 19:48:32;;;;;;;1.40;1.30;;;;;;;;;;12478691;28;20041;-74
2022/09/06 19:54:34;;;;;;;1.73;1.63;;;;;;;;;;12496304;28;20075;-74
2022/09/06 20:00:39;;;;;;;2.10;1.90;;;;;;;;;;12478499;28;20037;-75
2022/09/06 20:06:41;;;;;;;1.65;1.55;;;;;;;;;;12477959;28;20037;-75
2022/09/06 20:12:43;;;;;;;2.05;1.92;;;;;;;;;;12494702;28;20041;-73
2022/09/06 20:18:45;;;;;;;2.15;2.05;;;;;;;;;;12495570;28;20041;-73
2022/09/06 20:24:47;;;;;;;2.47;2.28;;;;;;;;;;12495436;28;20026;-75
2022/09/06 20:30:48;;;;;;;;;;;;;;;;;;12477408;28;20041;-75
2022/09/06 20:36:50;;;;;;;2.77;2.57;;;;;;;;;;12494430;28;19931;-75
2022/09/06 20:42:51;;;;;;;;;;;;;;;;;;12478475;28;20026;-75
2022/09/06 20:48:55;;;;;;;3.05;2.85;;;;;;;;;;12477022;28;19920;-75
2022/09/06 20:54:57;;;;;;;2.92;2.72;;;;;;;;;;12477039;28;20053;-75
2022/09/06 21:00:59;;;;;;;2.92;2.72;;;;;;;;;;12476816;28;20403;-74
2022/09/06 21:07:02;;;;;;;4.68;3.70;;;;;;;;;;12494356;28;20036;-75
2022/09/06 21:13:04;;;;;;;3.88;3.58;;;;;;;;;;12493499;28;20056;-75
2022/09/06 21:19:07;;;;;;;2.85;2.65;;;;;;;;;;12476428;28;20034;-75
2022/09/06 21:25:09;;;;;;;2.85;2.58;;;;;;;;;;12497591;28;20040;-75
2022/09/06 21:31:18;;;;;;;2.92;2.72;;;;;;;;;;12485356;28;20246;-75
2022/09/06 21:37:20;;;;;;;2.85;2.65;;;;;;;;;;12503932;28;20033;-74
2022/09/06 21:43:21;;;;;;;;;;;;;;;;;;12469820;28;20048;-74
2022/09/06 21:49:23;;;;;;;3.30;2.67;;;;;;;;;;12484424;28;19913;-74
2022/09/06 21:55:25;;;;;;;2.92;2.60;;;;;;;;;;12502007;28;20033;-74
2022/09/06 22:01:27;;;;;;;3.60;2.63;;;;;;;;;;12483996;28;20396;-74
2022/09/06 22:07:29;;;;;;;2.42;2.22;;;;;;;;;;12501351;28;20029;-74
2022/09/06 22:13:31;;;;;;;2.58;2.38;;;;;;;;;;12501505;28;20056;-74
2022/09/06 22:19:33;;;;;;;;;;;;;;;;;;12483438;28;20037;-74
2022/09/06 22:25:34;;;;;;;2.63;2.43;;;;;;;;;;12500571;28;19909;-74
2022/09/06 22:31:36;;;;;;;2.88;2.45;;;;;;;;;;12483291;28;20044;-74
2022/09/06 22:37:38;;;;;;;3.45;3.17;;;;;;;;;;12481638;28;20037;-74
2022/09/06 22:43:39;;;;;;;;;;;;;;;;;;12482873;28;20029;-74
2022/09/06 22:49:41;;;;;;;2.70;2.50;;;;;;;;;;12499425;28;20379;-74
2022/09/06 22:55:46;;;;;;;3.20;3.00;;;;;;;;;;12481613;28;20034;-74
2022/09/06 23:01:47;;;;;;;3.42;3.13;;;;;;;;;;12481025;28;20033;-74
2022/09/06 23:07:50;;;;;;;3.75;3.45;;;;;;;;;;12498726;28;20029;-74
2022/09/06 23:13:54;;;;;;;3.13;2.92;;;;;;;;;;12498473;28;20053;-74
2022/09/06 23:19:56;;;;;;;3.67;3.38;;;;;;;;;;12480566;28;20041;-74
2022/09/06 23:25:58;;;;;;;;;;;;;;;;;;12480738;28;20064;-74
2022/09/06 23:31:59;;;;;;;3.57;3.27;;;;;;;;;;12479700;28;19917;-74
2022/09/06 23:38:01;;;;;;;4.20;3.90;;;;;;;;;;12497182;28;20040;-74
2022/09/06 23:44:02;;;;;;;4.15;3.78;;;;;;;;;;12496959;28;20041;-74
2022/09/06 23:50:06;;;;;;;4.22;3.92;;;;;;;;;;12496552;28;20052;-74
2022/09/06 23:56:07;;;;;;;4.35;3.97;;;;;;;;;;12496402;28;20041;-73
